sensor_id;sensor_type;location;lat;lon;timestamp;P1;durP1;ratioP1;P2;durP2;ratioP2
10529;SDS011;5313;48.834;9.228;2022-10-16T00:01:18;2.27;;;1.57;;
10529;SDS011;5313;48.834;9.228;2022-10-16T00:03:47;2.67;;;1.80;;
10529;SDS011;5313;48.834;9.228;2022-10-16T00:06:13;4.07;;;1.70;;
10529;SDS011;5313;48.834;9.228;2022-10-16T00:08:40;3.60;;;1.53;;
10529;SDS011;5313;48.834;9.228;2022-10-16T00:11:07;3.77;;;1.70;;
10529;SDS011;5313;48.834;9.228;2022-10-16T00:13:35;2.97;;;1.80;;
10529;SDS011;5313;48.834;9.228;2022-10-16T00:16:02;3.80;;;1.60;;
10529;SDS011;5313;48.834;9.228;2022-10-16T00:18:28;2.43;;;1.60;;
10529;SDS011;5313;48.834;9.228;2022-10-16T00:20:55;2.87;;;1.60;;
10529;SDS011;5313;48.834;9.228;2022-10-16T00:23:21;3.27;;;1.37;;
10529;SDS011;5313;48.834;9.228;2022-10-16T00:25:56;3.53;;;1.60;;
10529;SDS011;5313;48.834;9.228;2022-10-16T00:28:23;2.43;;;1.50;;
10529;SDS011;5313;48.834;9.228;2022-10-16T00:30:48;3.80;;;1.50;;
10529;SDS011;5313;48.834;9.228;2022-10-16T00:33:14;7.43;;;1.57;;
10529;SDS011;5313;48.834;9.228;2022-10-16T00:35:40;6.87;;;1.60;;
10529;SDS011;5313;48.834;9.228;2022-10-16T00:38:05;3.20;;;1.63;;
10529;SDS011;5313;48.834;9.228;2022-10-16T00:40:31;5.93;;;1.70;;
10529;SDS011;5313;48.834;9.228;2022-10-16T00:42:56;2.90;;;1.47;;
10529;SDS011;5313;48.834;9.228;2022-10-16T00:45:22;3.10;;;1.47;;
10529;SDS011;5313;48.834;9.228;2022-10-16T00:47:48;6.57;;;2.30;;
10529;SDS011;5313;48.834;9.228;2022-10-16T00:50:24;3.33;;;1.60;;
10529;SDS011;5313;48.834;9.228;2022-10-16T00:52:56;2.43;;;1.60;;
10529;SDS011;5313;48.834;9.228;2022-10-16T00:55:23;2.33;;;1.80;;
10529;SDS011;5313;48.834;9.228;2022-10-16T00:57:49;1.90;;;1.67;;
10529;SDS011;5313;48.834;9.228;2022-10-16T01:00:19;3.70;;;1.70;;
10529;SDS011;5313;48.834;9.228;2022-10-16T01:02:57;4.07;;;2.00;;
10529;SDS011;5313;48.834;9.228;2022-10-16T01:05:37;2.20;;;1.50;;
10529;SDS011;5313;48.834;9.228;2022-10-16T01:08:12;3.23;;;1.53;;
10529;SDS011;5313;48.834;9.228;2022-10-16T01:10:55;3.20;;;1.80;;
10529;SDS011;5313;48.834;9.228;2022-10-16T01:13:30;4.13;;;1.80;;
10529;SDS011;5313;48.834;9.228;2022-10-16T01:16:07;2.47;;;1.70;;
10529;SDS011;5313;48.834;9.228;2022-10-16T01:18:45;5.67;;;1.80;;
10529;SDS011;5313;48.834;9.228;2022-10-16T01:21:22;3.73;;;1.80;;
10529;SDS011;5313;48.834;9.228;2022-10-16T01:29:39;2.20;;;1.70;;
10529;SDS011;5313;48.834;9.228;2022-10-16T01:35:05;5.20;;;2.10;;
10529;SDS011;5313;48.834;9.228;2022-10-16T01:37:55;5.30;;;1.90;;
10529;SDS011;5313;48.834;9.228;2022-10-16T01:40:27;3.03;;;2.07;;
10529;SDS011;5313;48.834;9.228;2022-10-16T01:42:56;5.20;;;1.70;;
10529;SDS011;5313;48.834;9.228;2022-10-16T01:45:25;3.80;;;1.73;;
10529;SDS011;5313;48.834;9.228;2022-10-16T01:47:53;2.97;;;1.70;;
10529;SDS011;5313;48.834;9.228;2022-10-16T01:50:19;2.53;;;1.77;;
10529;SDS011;5313;48.834;9.228;2022-10-16T01:52:47;4.20;;;1.60;;
10529;SDS011;5313;48.834;9.228;2022-10-16T01:55:17;2.73;;;1.80;;
10529;SDS011;5313;48.834;9.228;2022-10-16T01:57:47;3.00;;;1.70;;
10529;SDS011;5313;48.834;9.228;2022-10-16T02:00:15;4.63;;;1.47;;
10529;SDS011;5313;48.834;9.228;2022-10-16T02:02:43;2.93;;;1.60;;
10529;SDS011;5313;48.834;9.228;2022-10-16T02:05:14;3.03;;;1.70;;
10529;SDS011;5313;48.834;9.228;2022-10-16T02:07:45;3.40;;;1.70;;
10529;SDS011;5313;48.834;9.228;2022-10-16T02:10:13;2.53;;;1.70;;
10529;SDS011;5313;48.834;9.228;2022-10-16T02:12:39;3.90;;;1.57;;
10529;SDS011;5313;48.834;9.228;2022-10-16T02:15:09;4.80;;;1.80;;
10529;SDS011;5313;48.834;9.228;2022-10-16T02:17:35;3.20;;;1.73;;
10529;SDS011;5313;48.834;9.228;2022-10-16T02:20:00;2.90;;;1.57;;
10529;SDS011;5313;48.834;9.228;2022-10-16T02:22:28;4.23;;;1.80;;
10529;SDS011;5313;48.834;9.228;2022-10-16T02:24:59;4.43;;;1.70;;
10529;SDS011;5313;48.834;9.228;2022-10-16T02:30:32;5.27;;;1.87;;
10529;SDS011;5313;48.834;9.228;2022-10-16T02:33:06;2.70;;;1.80;;
10529;SDS011;5313;48.834;9.228;2022-10-16T02:35:34;5.77;;;1.90;;
10529;SDS011;5313;48.834;9.228;2022-10-16T02:38:00;2.50;;;1.67;;
10529;SDS011;5313;48.834;9.228;2022-10-16T02:40:26;2.67;;;1.73;;
10529;SDS011;5313;48.834;9.228;2022-10-16T02:42:53;2.63;;;1.87;;
10529;SDS011;5313;48.834;9.228;2022-10-16T02:45:19;2.63;;;1.73;;
10529;SDS011;5313;48.834;9.228;2022-10-16T02:47:45;6.37;;;1.93;;
10529;SDS011;5313;48.834;9.228;2022-10-16T02:50:11;3.77;;;1.70;;
10529;SDS011;5313;48.834;9.228;2022-10-16T02:52:37;4.27;;;2.00;;
10529;SDS011;5313;48.834;9.228;2022-10-16T02:55:02;3.00;;;2.30;;
10529;SDS011;5313;48.834;9.228;2022-10-16T02:57:28;5.10;;;2.10;;
10529;SDS011;5313;48.834;9.228;2022-10-16T02:59:54;4.53;;;2.20;;
10529;SDS011;5313;48.834;9.228;2022-10-16T03:02:20;3.60;;;2.10;;
10529;SDS011;5313;48.834;9.228;2022-10-16T03:04:46;5.83;;;2.33;;
10529;SDS011;5313;48.834;9.228;2022-10-16T03:07:11;2.93;;;2.20;;
10529;SDS011;5313;48.834;9.228;2022-10-16T03:09:37;4.30;;;2.10;;
10529;SDS011;5313;48.834;9.228;2022-10-16T03:12:02;3.03;;;2.23;;
10529;SDS011;5313;48.834;9.228;2022-10-16T03:14:28;3.07;;;1.90;;
10529;SDS011;5313;48.834;9.228;2022-10-16T03:16:54;4.13;;;2.13;;
10529;SDS011;5313;48.834;9.228;2022-10-16T03:19:19;8.00;;;2.27;;
10529;SDS011;5313;48.834;9.228;2022-10-16T03:21:45;2.97;;;1.97;;
10529;SDS011;5313;48.834;9.228;2022-10-16T03:24:11;3.40;;;2.20;;
10529;SDS011;5313;48.834;9.228;2022-10-16T03:26:36;4.90;;;2.20;;
10529;SDS011;5313;48.834;9.228;2022-10-16T03:29:02;13.03;;;2.77;;
10529;SDS011;5313;48.834;9.228;2022-10-16T03:31:28;5.87;;;2.30;;
10529;SDS011;5313;48.834;9.228;2022-10-16T03:33:55;1.93;;;1.50;;
10529;SDS011;5313;48.834;9.228;2022-10-16T03:36:21;2.10;;;1.40;;
10529;SDS011;5313;48.834;9.228;2022-10-16T03:38:46;5.73;;;1.70;;
10529;SDS011;5313;48.834;9.228;2022-10-16T03:41:12;2.30;;;1.30;;
10529;SDS011;5313;48.834;9.228;2022-10-16T03:43:37;2.03;;;1.50;;
10529;SDS011;5313;48.834;9.228;2022-10-16T03:46:03;6.00;;;1.70;;
10529;SDS011;5313;48.834;9.228;2022-10-16T03:48:29;2.63;;;1.50;;
10529;SDS011;5313;48.834;9.228;2022-10-16T03:50:55;3.43;;;1.60;;
10529;SDS011;5313;48.834;9.228;2022-10-16T03:53:20;2.63;;;1.90;;
10529;SDS011;5313;48.834;9.228;2022-10-16T03:55:46;4.87;;;1.60;;
10529;SDS011;5313;48.834;9.228;2022-10-16T03:58:11;4.30;;;2.10;;
10529;SDS011;5313;48.834;9.228;2022-10-16T04:00:41;4.37;;;2.07;;
10529;SDS011;5313;48.834;9.228;2022-10-16T04:03:07;3.93;;;2.20;;
10529;SDS011;5313;48.834;9.228;2022-10-16T04:05:33;5.17;;;2.47;;
10529;SDS011;5313;48.834;9.228;2022-10-16T04:07:58;4.33;;;2.20;;
10529;SDS011;5313;48.834;9.228;2022-10-16T04:10:24;4.00;;;2.17;;
10529;SDS011;5313;48.834;9.228;2022-10-16T04:12:49;3.13;;;2.20;;
10529;SDS011;5313;48.834;9.228;2022-10-16T04:15:15;3.40;;;2.20;;
10529;SDS011;5313;48.834;9.228;2022-10-16T04:17:41;3.43;;;2.20;;
10529;SDS011;5313;48.834;9.228;2022-10-16T04:20:06;3.40;;;2.40;;
10529;SDS011;5313;48.834;9.228;2022-10-16T04:22:32;3.27;;;2.00;;
10529;SDS011;5313;48.834;9.228;2022-10-16T04:24:58;4.03;;;2.50;;
10529;SDS011;5313;48.834;9.228;2022-10-16T04:27:23;2.80;;;2.17;;
10529;SDS011;5313;48.834;9.228;2022-10-16T04:29:49;3.73;;;2.40;;
10529;SDS011;5313;48.834;9.228;2022-10-16T04:32:14;4.80;;;2.30;;
10529;SDS011;5313;48.834;9.228;2022-10-16T04:34:40;2.17;;;1.97;;
10529;SDS011;5313;48.834;9.228;2022-10-16T04:37:06;3.00;;;1.97;;
10529;SDS011;5313;48.834;9.228;2022-10-16T04:39:32;6.63;;;2.00;;
10529;SDS011;5313;48.834;9.228;2022-10-16T04:41:57;3.37;;;2.10;;
10529;SDS011;5313;48.834;9.228;2022-10-16T04:44:23;3.57;;;1.87;;
10529;SDS011;5313;48.834;9.228;2022-10-16T04:46:50;2.67;;;2.00;;
10529;SDS011;5313;48.834;9.228;2022-10-16T04:49:16;2.70;;;2.00;;
10529;SDS011;5313;48.834;9.228;2022-10-16T04:51:42;5.87;;;2.10;;
10529;SDS011;5313;48.834;9.228;2022-10-16T04:54:08;4.27;;;1.97;;
10529;SDS011;5313;48.834;9.228;2022-10-16T04:56:34;2.50;;;2.00;;
10529;SDS011;5313;48.834;9.228;2022-10-16T04:59:07;3.83;;;2.13;;
10529;SDS011;5313;48.834;9.228;2022-10-16T05:01:33;2.43;;;2.17;;
10529;SDS011;5313;48.834;9.228;2022-10-16T05:03:58;6.20;;;2.20;;
10529;SDS011;5313;48.834;9.228;2022-10-16T05:06:24;4.53;;;2.20;;
10529;SDS011;5313;48.834;9.228;2022-10-16T05:08:49;2.20;;;1.90;;
10529;SDS011;5313;48.834;9.228;2022-10-16T05:11:15;5.33;;;2.00;;
10529;SDS011;5313;48.834;9.228;2022-10-16T05:13:40;4.20;;;2.10;;
10529;SDS011;5313;48.834;9.228;2022-10-16T05:16:06;8.13;;;2.00;;
10529;SDS011;5313;48.834;9.228;2022-10-16T05:18:31;2.10;;;1.90;;
10529;SDS011;5313;48.834;9.228;2022-10-16T05:20:57;2.70;;;2.10;;
10529;SDS011;5313;48.834;9.228;2022-10-16T05:23:22;2.80;;;1.90;;
10529;SDS011;5313;48.834;9.228;2022-10-16T05:25:52;3.17;;;2.17;;
10529;SDS011;5313;48.834;9.228;2022-10-16T05:28:23;3.40;;;2.23;;
10529;SDS011;5313;48.834;9.228;2022-10-16T05:30:49;8.47;;;2.97;;
10529;SDS011;5313;48.834;9.228;2022-10-16T05:33:15;6.27;;;2.90;;
10529;SDS011;5313;48.834;9.228;2022-10-16T05:35:40;4.60;;;2.40;;
10529;SDS011;5313;48.834;9.228;2022-10-16T05:38:06;4.17;;;2.00;;
10529;SDS011;5313;48.834;9.228;2022-10-16T05:40:31;3.17;;;2.20;;
10529;SDS011;5313;48.834;9.228;2022-10-16T05:42:57;3.57;;;1.80;;
10529;SDS011;5313;48.834;9.228;2022-10-16T05:45:22;2.13;;;1.80;;
10529;SDS011;5313;48.834;9.228;2022-10-16T05:47:48;5.60;;;2.00;;
10529;SDS011;5313;48.834;9.228;2022-10-16T05:50:13;2.40;;;1.80;;
10529;SDS011;5313;48.834;9.228;2022-10-16T05:52:39;5.57;;;2.17;;
10529;SDS011;5313;48.834;9.228;2022-10-16T05:55:05;6.50;;;2.20;;
10529;SDS011;5313;48.834;9.228;2022-10-16T05:57:30;3.63;;;2.30;;
10529;SDS011;5313;48.834;9.228;2022-10-16T05:59:56;2.77;;;1.80;;
10529;SDS011;5313;48.834;9.228;2022-10-16T06:02:22;6.00;;;1.83;;
10529;SDS011;5313;48.834;9.228;2022-10-16T06:04:47;3.97;;;2.00;;
10529;SDS011;5313;48.834;9.228;2022-10-16T06:07:13;2.73;;;1.97;;
10529;SDS011;5313;48.834;9.228;2022-10-16T06:09:38;5.47;;;1.90;;
10529;SDS011;5313;48.834;9.228;2022-10-16T06:12:04;3.17;;;1.80;;
10529;SDS011;5313;48.834;9.228;2022-10-16T06:14:29;2.10;;;1.90;;
10529;SDS011;5313;48.834;9.228;2022-10-16T06:16:55;2.73;;;1.90;;
10529;SDS011;5313;48.834;9.228;2022-10-16T06:19:20;6.90;;;2.07;;
10529;SDS011;5313;48.834;9.228;2022-10-16T06:21:47;4.60;;;2.33;;
10529;SDS011;5313;48.834;9.228;2022-10-16T06:24:13;3.67;;;2.17;;
10529;SDS011;5313;48.834;9.228;2022-10-16T06:26:38;4.57;;;2.00;;
10529;SDS011;5313;48.834;9.228;2022-10-16T06:29:04;5.03;;;1.90;;
10529;SDS011;5313;48.834;9.228;2022-10-16T06:31:30;3.40;;;2.17;;
10529;SDS011;5313;48.834;9.228;2022-10-16T06:33:58;7.13;;;2.97;;
10529;SDS011;5313;48.834;9.228;2022-10-16T06:36:24;5.07;;;2.27;;
10529;SDS011;5313;48.834;9.228;2022-10-16T06:38:50;3.27;;;2.20;;
10529;SDS011;5313;48.834;9.228;2022-10-16T06:41:17;5.17;;;2.27;;
10529;SDS011;5313;48.834;9.228;2022-10-16T06:43:44;3.47;;;2.53;;
10529;SDS011;5313;48.834;9.228;2022-10-16T06:46:11;5.77;;;2.17;;
10529;SDS011;5313;48.834;9.228;2022-10-16T06:48:38;3.87;;;2.03;;
10529;SDS011;5313;48.834;9.228;2022-10-16T06:51:05;2.13;;;1.83;;
10529;SDS011;5313;48.834;9.228;2022-10-16T06:53:34;6.40;;;1.90;;
10529;SDS011;5313;48.834;9.228;2022-10-16T06:56:13;4.87;;;2.40;;
10529;SDS011;5313;48.834;9.228;2022-10-16T06:58:40;4.60;;;2.50;;
10529;SDS011;5313;48.834;9.228;2022-10-16T07:01:06;4.13;;;2.90;;
10529;SDS011;5313;48.834;9.228;2022-10-16T07:03:32;4.67;;;2.80;;
10529;SDS011;5313;48.834;9.228;2022-10-16T07:06:01;5.10;;;2.87;;
10529;SDS011;5313;48.834;9.228;2022-10-16T07:08:30;7.77;;;2.90;;
10529;SDS011;5313;48.834;9.228;2022-10-16T07:11:00;4.70;;;3.10;;
10529;SDS011;5313;48.834;9.228;2022-10-16T07:13:26;6.47;;;3.50;;
10529;SDS011;5313;48.834;9.228;2022-10-16T07:15:51;4.47;;;3.30;;
10529;SDS011;5313;48.834;9.228;2022-10-16T07:18:17;3.67;;;2.83;;
10529;SDS011;5313;48.834;9.228;2022-10-16T07:20:43;3.80;;;3.20;;
10529;SDS011;5313;48.834;9.228;2022-10-16T07:23:08;4.27;;;2.30;;
10529;SDS011;5313;48.834;9.228;2022-10-16T07:25:34;7.23;;;2.50;;
10529;SDS011;5313;48.834;9.228;2022-10-16T07:27:59;4.53;;;3.10;;
10529;SDS011;5313;48.834;9.228;2022-10-16T07:30:25;4.67;;;3.17;;
10529;SDS011;5313;48.834;9.228;2022-10-16T07:32:51;8.93;;;3.10;;
10529;SDS011;5313;48.834;9.228;2022-10-16T07:35:16;6.50;;;3.17;;
10529;SDS011;5313;48.834;9.228;2022-10-16T07:37:45;8.47;;;5.00;;
10529;SDS011;5313;48.834;9.228;2022-10-16T07:40:11;10.27;;;6.20;;
10529;SDS011;5313;48.834;9.228;2022-10-16T07:42:37;10.87;;;5.50;;
10529;SDS011;5313;48.834;9.228;2022-10-16T07:45:03;4.97;;;3.50;;
10529;SDS011;5313;48.834;9.228;2022-10-16T07:47:29;5.73;;;3.60;;
10529;SDS011;5313;48.834;9.228;2022-10-16T07:49:54;7.33;;;3.30;;
10529;SDS011;5313;48.834;9.228;2022-10-16T07:52:20;8.80;;;5.27;;
10529;SDS011;5313;48.834;9.228;2022-10-16T07:54:45;7.30;;;5.27;;
10529;SDS011;5313;48.834;9.228;2022-10-16T07:57:11;9.13;;;5.03;;
10529;SDS011;5313;48.834;9.228;2022-10-16T07:59:36;6.73;;;5.40;;
10529;SDS011;5313;48.834;9.228;2022-10-16T08:02:02;7.67;;;5.83;;
10529;SDS011;5313;48.834;9.228;2022-10-16T08:04:27;25.70;;;11.90;;
10529;SDS011;5313;48.834;9.228;2022-10-16T08:06:53;11.50;;;6.33;;
10529;SDS011;5313;48.834;9.228;2022-10-16T08:09:19;11.73;;;5.87;;
10529;SDS011;5313;48.834;9.228;2022-10-16T08:11:44;7.40;;;5.20;;
10529;SDS011;5313;48.834;9.228;2022-10-16T08:14:10;7.50;;;4.93;;
10529;SDS011;5313;48.834;9.228;2022-10-16T08:16:36;7.43;;;3.90;;
10529;SDS011;5313;48.834;9.228;2022-10-16T08:19:01;5.93;;;4.00;;
10529;SDS011;5313;48.834;9.228;2022-10-16T08:21:27;5.80;;;4.10;;
10529;SDS011;5313;48.834;9.228;2022-10-16T08:23:53;4.00;;;3.57;;
10529;SDS011;5313;48.834;9.228;2022-10-16T08:26:19;3.33;;;2.67;;
10529;SDS011;5313;48.834;9.228;2022-10-16T08:28:45;6.77;;;3.20;;
10529;SDS011;5313;48.834;9.228;2022-10-16T08:31:11;5.33;;;2.60;;
10529;SDS011;5313;48.834;9.228;2022-10-16T08:33:38;4.83;;;2.50;;
10529;SDS011;5313;48.834;9.228;2022-10-16T08:36:06;4.13;;;2.30;;
10529;SDS011;5313;48.834;9.228;2022-10-16T08:38:32;3.33;;;2.63;;
10529;SDS011;5313;48.834;9.228;2022-10-16T08:41:08;4.97;;;2.37;;
10529;SDS011;5313;48.834;9.228;2022-10-16T08:49:13;6.07;;;1.63;;
10529;SDS011;5313;48.834;9.228;2022-10-16T08:51:39;2.97;;;1.47;;
10529;SDS011;5313;48.834;9.228;2022-10-16T08:54:11;1.90;;;1.33;;
10529;SDS011;5313;48.834;9.228;2022-10-16T08:56:48;4.53;;;1.50;;
10529;SDS011;5313;48.834;9.228;2022-10-16T08:59:13;1.63;;;1.37;;
10529;SDS011;5313;48.834;9.228;2022-10-16T09:01:41;2.77;;;1.63;;
10529;SDS011;5313;48.834;9.228;2022-10-16T09:06:56;1.70;;;1.50;;
10529;SDS011;5313;48.834;9.228;2022-10-16T09:12:19;4.57;;;1.50;;
10529;SDS011;5313;48.834;9.228;2022-10-16T09:17:56;2.70;;;1.50;;
10529;SDS011;5313;48.834;9.228;2022-10-16T09:23:26;4.23;;;1.67;;
10529;SDS011;5313;48.834;9.228;2022-10-16T09:25:54;2.97;;;1.20;;
10529;SDS011;5313;48.834;9.228;2022-10-16T09:28:20;4.03;;;1.50;;
10529;SDS011;5313;48.834;9.228;2022-10-16T09:30:46;3.33;;;1.30;;
10529;SDS011;5313;48.834;9.228;2022-10-16T09:33:15;3.07;;;1.30;;
10529;SDS011;5313;48.834;9.228;2022-10-16T09:35:44;2.97;;;1.47;;
10529;SDS011;5313;48.834;9.228;2022-10-16T09:40:48;2.40;;;1.63;;
10529;SDS011;5313;48.834;9.228;2022-10-16T09:43:19;1.60;;;1.50;;
10529;SDS011;5313;48.834;9.228;2022-10-16T09:48:39;2.03;;;1.30;;
10529;SDS011;5313;48.834;9.228;2022-10-16T09:53:49;5.73;;;1.63;;
10529;SDS011;5313;48.834;9.228;2022-10-16T09:56:25;2.67;;;1.20;;
10529;SDS011;5313;48.834;9.228;2022-10-16T09:58:57;3.73;;;1.30;;
10529;SDS011;5313;48.834;9.228;2022-10-16T10:01:54;1.30;;;1.10;;
10529;SDS011;5313;48.834;9.228;2022-10-16T10:04:22;2.77;;;1.40;;
10529;SDS011;5313;48.834;9.228;2022-10-16T10:06:49;3.83;;;2.10;;
10529;SDS011;5313;48.834;9.228;2022-10-16T10:09:23;4.00;;;1.30;;
10529;SDS011;5313;48.834;9.228;2022-10-16T10:22:45;1.67;;;1.20;;
10529;SDS011;5313;48.834;9.228;2022-10-16T10:27:44;2.20;;;1.13;;
10529;SDS011;5313;48.834;9.228;2022-10-16T10:33:46;3.20;;;1.20;;
10529;SDS011;5313;48.834;9.228;2022-10-16T10:36:05;3.47;;;1.23;;
10529;SDS011;5313;48.834;9.228;2022-10-16T10:38:42;2.20;;;1.07;;
10529;SDS011;5313;48.834;9.228;2022-10-16T10:44:03;1.30;;;1.20;;
10529;SDS011;5313;48.834;9.228;2022-10-16T10:49:27;2.10;;;1.20;;
10529;SDS011;5313;48.834;9.228;2022-10-16T10:52:26;5.53;;;1.27;;
10529;SDS011;5313;48.834;9.228;2022-10-16T11:00:16;2.20;;;1.00;;
10529;SDS011;5313;48.834;9.228;2022-10-16T11:02:48;2.17;;;1.20;;
10529;SDS011;5313;48.834;9.228;2022-10-16T11:05:45;6.07;;;1.10;;
10529;SDS011;5313;48.834;9.228;2022-10-16T11:11:03;1.90;;;0.97;;
10529;SDS011;5313;48.834;9.228;2022-10-16T11:16:22;6.73;;;1.40;;
10529;SDS011;5313;48.834;9.228;2022-10-16T11:19:39;1.50;;;1.40;;
10529;SDS011;5313;48.834;9.228;2022-10-16T11:21:45;3.00;;;1.03;;
10529;SDS011;5313;48.834;9.228;2022-10-16T11:24:22;4.73;;;1.10;;
10529;SDS011;5313;48.834;9.228;2022-10-16T11:26:55;3.57;;;1.33;;
10529;SDS011;5313;48.834;9.228;2022-10-16T11:29:26;2.37;;;1.20;;
10529;SDS011;5313;48.834;9.228;2022-10-16T11:32:00;2.30;;;1.10;;
10529;SDS011;5313;48.834;9.228;2022-10-16T11:34:36;2.83;;;1.20;;
10529;SDS011;5313;48.834;9.228;2022-10-16T11:37:14;5.10;;;1.13;;
10529;SDS011;5313;48.834;9.228;2022-10-16T11:39:45;4.53;;;1.23;;
10529;SDS011;5313;48.834;9.228;2022-10-16T11:42:19;2.73;;;1.50;;
10529;SDS011;5313;48.834;9.228;2022-10-16T11:45:00;2.27;;;1.43;;
10529;SDS011;5313;48.834;9.228;2022-10-16T11:50:17;3.37;;;1.20;;
10529;SDS011;5313;48.834;9.228;2022-10-16T11:55:41;2.43;;;1.27;;
10529;SDS011;5313;48.834;9.228;2022-10-16T12:01:46;2.00;;;1.47;;
10529;SDS011;5313;48.834;9.228;2022-10-16T12:06:34;1.40;;;1.10;;
10529;SDS011;5313;48.834;9.228;2022-10-16T12:09:22;2.13;;;1.10;;
10529;SDS011;5313;48.834;9.228;2022-10-16T12:11:52;1.33;;;1.23;;
10529;SDS011;5313;48.834;9.228;2022-10-16T12:14:20;4.83;;;1.13;;
10529;SDS011;5313;48.834;9.228;2022-10-16T12:19:21;1.60;;;1.13;;
10529;SDS011;5313;48.834;9.228;2022-10-16T12:21:48;2.63;;;1.40;;
10529;SDS011;5313;48.834;9.228;2022-10-16T12:24:20;2.03;;;1.00;;
10529;SDS011;5313;48.834;9.228;2022-10-16T12:26:56;2.30;;;1.38;;
10529;SDS011;5313;48.834;9.228;2022-10-16T12:32:24;2.33;;;1.27;;
10529;SDS011;5313;48.834;9.228;2022-10-16T12:34:56;4.97;;;1.10;;
10529;SDS011;5313;48.834;9.228;2022-10-16T12:37:27;2.03;;;1.07;;
10529;SDS011;5313;48.834;9.228;2022-10-16T12:39:57;1.43;;;1.17;;
10529;SDS011;5313;48.834;9.228;2022-10-16T12:44:53;1.33;;;1.10;;
10529;SDS011;5313;48.834;9.228;2022-10-16T12:47:20;3.37;;;1.40;;
10529;SDS011;5313;48.834;9.228;2022-10-16T12:50:00;5.43;;;1.52;;
10529;SDS011;5313;48.834;9.228;2022-10-16T12:52:38;2.28;;;1.20;;
10529;SDS011;5313;48.834;9.228;2022-10-16T12:55:05;1.50;;;1.10;;
10529;SDS011;5313;48.834;9.228;2022-10-16T12:57:47;1.48;;;1.23;;
10529;SDS011;5313;48.834;9.228;2022-10-16T13:00:25;3.60;;;1.17;;
10529;SDS011;5313;48.834;9.228;2022-10-16T13:03:17;4.80;;;1.13;;
10529;SDS011;5313;48.834;9.228;2022-10-16T13:08:56;4.13;;;1.50;;
10529;SDS011;5313;48.834;9.228;2022-10-16T13:11:43;1.17;;;1.00;;
10529;SDS011;5313;48.834;9.228;2022-10-16T13:19:52;2.77;;;1.30;;
10529;SDS011;5313;48.834;9.228;2022-10-16T13:22:43;3.83;;;1.40;;
10529;SDS011;5313;48.834;9.228;2022-10-16T13:27:54;1.50;;;1.10;;
10529;SDS011;5313;48.834;9.228;2022-10-16T13:30:32;1.95;;;1.20;;
10529;SDS011;5313;48.834;9.228;2022-10-16T13:35:35;1.23;;;1.00;;
10529;SDS011;5313;48.834;9.228;2022-10-16T13:38:05;3.37;;;1.13;;
10529;SDS011;5313;48.834;9.228;2022-10-16T13:40:48;1.67;;;1.20;;
10529;SDS011;5313;48.834;9.228;2022-10-16T13:43:20;5.07;;;1.10;;
10529;SDS011;5313;48.834;9.228;2022-10-16T13:46:06;3.60;;;1.50;;
10529;SDS011;5313;48.834;9.228;2022-10-16T13:48:37;1.80;;;1.07;;
10529;SDS011;5313;48.834;9.228;2022-10-16T13:51:10;1.67;;;1.27;;
10529;SDS011;5313;48.834;9.228;2022-10-16T13:53:38;2.00;;;1.20;;
10529;SDS011;5313;48.834;9.228;2022-10-16T13:56:06;2.80;;;1.40;;
10529;SDS011;5313;48.834;9.228;2022-10-16T13:58:35;4.07;;;1.67;;
10529;SDS011;5313;48.834;9.228;2022-10-16T14:01:02;6.17;;;2.20;;
10529;SDS011;5313;48.834;9.228;2022-10-16T14:03:42;2.27;;;1.30;;
10529;SDS011;5313;48.834;9.228;2022-10-16T14:06:14;1.30;;;1.20;;
10529;SDS011;5313;48.834;9.228;2022-10-16T14:08:43;3.80;;;1.47;;
10529;SDS011;5313;48.834;9.228;2022-10-16T14:11:11;2.67;;;1.47;;
10529;SDS011;5313;48.834;9.228;2022-10-16T14:13:38;2.30;;;1.80;;
10529;SDS011;5313;48.834;9.228;2022-10-16T14:16:10;4.60;;;2.20;;
10529;SDS011;5313;48.834;9.228;2022-10-16T14:18:41;2.50;;;2.00;;
10529;SDS011;5313;48.834;9.228;2022-10-16T14:21:15;3.33;;;2.33;;
10529;SDS011;5313;48.834;9.228;2022-10-16T14:23:41;2.30;;;2.10;;
10529;SDS011;5313;48.834;9.228;2022-10-16T14:28:33;3.97;;;2.07;;
10529;SDS011;5313;48.834;9.228;2022-10-16T14:30:59;5.63;;;1.87;;
10529;SDS011;5313;48.834;9.228;2022-10-16T14:38:36;3.97;;;1.50;;
10529;SDS011;5313;48.834;9.228;2022-10-16T14:41:03;2.60;;;1.20;;
10529;SDS011;5313;48.834;9.228;2022-10-16T14:46:01;6.07;;;1.67;;
10529;SDS011;5313;48.834;9.228;2022-10-16T14:48:40;5.37;;;1.60;;
10529;SDS011;5313;48.834;9.228;2022-10-16T14:51:15;3.60;;;1.60;;
10529;SDS011;5313;48.834;9.228;2022-10-16T14:53:42;2.23;;;1.50;;
10529;SDS011;5313;48.834;9.228;2022-10-16T14:56:29;1.90;;;1.67;;
10529;SDS011;5313;48.834;9.228;2022-10-16T14:58:55;2.67;;;1.57;;
10529;SDS011;5313;48.834;9.228;2022-10-16T15:01:21;2.10;;;1.60;;
10529;SDS011;5313;48.834;9.228;2022-10-16T15:03:47;2.30;;;1.30;;
10529;SDS011;5313;48.834;9.228;2022-10-16T15:06:13;5.23;;;1.40;;
10529;SDS011;5313;48.834;9.228;2022-10-16T15:08:40;4.03;;;1.60;;
10529;SDS011;5313;48.834;9.228;2022-10-16T15:11:12;4.93;;;1.80;;
10529;SDS011;5313;48.834;9.228;2022-10-16T15:13:40;3.47;;;1.90;;
10529;SDS011;5313;48.834;9.228;2022-10-16T15:16:13;2.27;;;1.50;;
10529;SDS011;5313;48.834;9.228;2022-10-16T15:18:40;3.30;;;1.60;;
10529;SDS011;5313;48.834;9.228;2022-10-16T15:21:05;3.13;;;2.10;;
10529;SDS011;5313;48.834;9.228;2022-10-16T15:23:31;3.50;;;2.37;;
10529;SDS011;5313;48.834;9.228;2022-10-16T15:25:57;5.30;;;2.30;;
10529;SDS011;5313;48.834;9.228;2022-10-16T15:28:23;5.00;;;2.50;;
10529;SDS011;5313;48.834;9.228;2022-10-16T15:30:51;5.23;;;3.70;;
10529;SDS011;5313;48.834;9.228;2022-10-16T15:33:19;5.97;;;4.20;;
10529;SDS011;5313;48.834;9.228;2022-10-16T15:35:48;6.83;;;4.30;;
10529;SDS011;5313;48.834;9.228;2022-10-16T15:38:14;5.90;;;2.30;;
10529;SDS011;5313;48.834;9.228;2022-10-16T15:40:40;4.03;;;2.20;;
10529;SDS011;5313;48.834;9.228;2022-10-16T15:43:06;3.73;;;1.53;;
10529;SDS011;5313;48.834;9.228;2022-10-16T15:45:32;2.83;;;1.50;;
10529;SDS011;5313;48.834;9.228;2022-10-16T15:47:58;4.87;;;1.70;;
10529;SDS011;5313;48.834;9.228;2022-10-16T15:50:23;1.93;;;1.43;;
10529;SDS011;5313;48.834;9.228;2022-10-16T15:52:50;1.80;;;1.33;;
10529;SDS011;5313;48.834;9.228;2022-10-16T15:55:16;2.37;;;1.43;;
10529;SDS011;5313;48.834;9.228;2022-10-16T15:57:43;2.77;;;1.40;;
10529;SDS011;5313;48.834;9.228;2022-10-16T16:00:11;2.10;;;1.67;;
10529;SDS011;5313;48.834;9.228;2022-10-16T16:02:39;6.77;;;1.70;;
10529;SDS011;5313;48.834;9.228;2022-10-16T16:05:06;3.10;;;1.57;;
10529;SDS011;5313;48.834;9.228;2022-10-16T16:07:33;6.10;;;1.70;;
10529;SDS011;5313;48.834;9.228;2022-10-16T16:09:59;6.10;;;1.70;;
10529;SDS011;5313;48.834;9.228;2022-10-16T16:12:25;4.67;;;1.70;;
10529;SDS011;5313;48.834;9.228;2022-10-16T16:14:51;2.60;;;1.90;;
10529;SDS011;5313;48.834;9.228;2022-10-16T16:17:17;3.20;;;2.00;;
10529;SDS011;5313;48.834;9.228;2022-10-16T16:19:43;11.70;;;1.80;;
10529;SDS011;5313;48.834;9.228;2022-10-16T16:22:08;4.40;;;2.27;;
10529;SDS011;5313;48.834;9.228;2022-10-16T16:24:34;4.23;;;1.80;;
10529;SDS011;5313;48.834;9.228;2022-10-16T16:26:59;3.07;;;2.00;;
10529;SDS011;5313;48.834;9.228;2022-10-16T16:29:25;6.27;;;2.60;;
10529;SDS011;5313;48.834;9.228;2022-10-16T16:31:50;4.73;;;2.27;;
10529;SDS011;5313;48.834;9.228;2022-10-16T16:34:22;4.73;;;2.10;;
10529;SDS011;5313;48.834;9.228;2022-10-16T16:36:49;3.57;;;2.30;;
10529;SDS011;5313;48.834;9.228;2022-10-16T16:39:14;2.30;;;2.10;;
10529;SDS011;5313;48.834;9.228;2022-10-16T16:41:40;3.60;;;2.33;;
10529;SDS011;5313;48.834;9.228;2022-10-16T16:44:06;5.23;;;2.47;;
10529;SDS011;5313;48.834;9.228;2022-10-16T16:46:33;3.73;;;2.70;;
10529;SDS011;5313;48.834;9.228;2022-10-16T16:49:00;4.03;;;2.70;;
10529;SDS011;5313;48.834;9.228;2022-10-16T16:51:26;5.20;;;2.90;;
10529;SDS011;5313;48.834;9.228;2022-10-16T16:53:52;6.93;;;3.13;;
10529;SDS011;5313;48.834;9.228;2022-10-16T16:56:19;4.17;;;2.70;;
10529;SDS011;5313;48.834;9.228;2022-10-16T16:58:49;7.27;;;2.93;;
10529;SDS011;5313;48.834;9.228;2022-10-16T17:01:16;8.47;;;3.20;;
10529;SDS011;5313;48.834;9.228;2022-10-16T17:03:43;35.77;;;22.53;;